Time;durP1;ratioP1;P1;durP2;ratioP2;P2;SDS_P1;SDS_P2;PMS_P1;PMS_P2;Temp;Humidity;BMP_temperature;BMP_pressure;BME280_temperature;BME280_humidity;BME280_pressure;Samples;Min_cycle;Max_cycle;Signal;HPM_P1;HPM_P2
2023/05/25 00:00:14;;;;;;;21.42;7.75;;;11.70;99.90;;;;;;4937571;29;20238;-81
2023/05/25 00:02:43;;;;;;;24.45;8.05;;;11.70;99.90;;;;;;4931671;29;20203;-81
2023/05/25 00:05:09;;;;;;;17.67;7.65;;;11.70;99.90;;;;;;4935901;29;20223;-82
2023/05/25 00:07:35;;;;;;;27.52;8.10;;;11.70;99.90;;;;;;4935668;29;20246;-81
2023/05/25 00:10:02;;;;;;;18.27;7.47;;;11.70;99.90;;;;;;4936503;29;20199;-81
2023/05/25 00:12:27;;;;;;;19.80;7.72;;;11.70;99.90;;;;;;4932571;29;20188;-81
2023/05/25 00:14:53;;;;;;;18.60;7.65;;;11.70;99.90;;;;;;4919728;29;20302;-81
2023/05/25 00:17:20;;;;;;;27.55;8.20;;;11.70;99.90;;;;;;4934340;29;20182;-81
2023/05/25 00:19:46;;;;;;;20.15;7.88;;;11.70;99.90;;;;;;4921794;29;20191;-81
2023/05/25 00:22:12;;;;;;;21.70;7.82;;;11.70;99.90;;;;;;4901444;29;20192;-80
2023/05/25 00:24:39;;;;;;;20.77;7.85;;;11.70;99.90;;;;;;4925455;29;20228;-81
2023/05/25 00:27:06;;;;;;;31.17;9.13;;;11.70;99.90;;;;;;4950746;29;20618;-81
2023/05/25 00:29:32;;;;;;;21.42;7.75;;;11.70;99.90;;;;;;4924436;29;20282;-81
2023/05/25 00:32:00;;;;;;;20.38;7.90;;;11.70;99.90;;;;;;4935322;29;20519;-80
2023/05/25 00:34:26;;;;;;;23.75;7.75;;;11.70;99.90;;;;;;4936714;29;20183;-81
2023/05/25 00:36:53;;;;;;;22.90;8.40;;;11.70;99.90;;;;;;4934952;29;20214;-81
2023/05/25 00:39:19;;;;;;;20.55;7.57;;;11.70;99.90;;;;;;4936293;29;20191;-81
2023/05/25 00:41:46;;;;;;;22.52;8.20;;;11.60;99.90;;;;;;4935002;29;20571;-81
2023/05/25 00:44:14;;;;;;;25.50;8.55;;;11.60;99.90;;;;;;4915971;29;20182;-82
2023/05/25 00:46:46;;;;;;;24.10;8.45;;;11.60;99.90;;;;;;4926438;29;20187;-81
2023/05/25 00:49:18;;;;;;;22.52;8.32;;;11.60;99.90;;;;;;4936698;29;20176;-81
2023/05/25 00:51:45;;;;;;;26.90;8.60;;;11.60;99.90;;;;;;4919224;29;20203;-83
2023/05/25 00:54:16;;;;;;;25.63;8.88;;;11.60;99.90;;;;;;4935706;29;20188;-81
2023/05/25 00:56:49;;;;;;;20.50;8.38;;;11.60;99.90;;;;;;4933483;29;20219;-81
2023/05/25 00:59:25;;;;;;;23.98;8.90;;;11.50;99.90;;;;;;4936290;29;20653;-81
2023/05/25 01:01:54;;;;;;;26.63;9.27;;;11.50;99.90;;;;;;4923995;29;20239;-82
2023/05/25 01:04:22;;;;;;;24.67;9.40;;;11.50;99.90;;;;;;4933862;29;20622;-81
2023/05/25 01:06:49;;;;;;;24.38;8.60;;;11.40;99.90;;;;;;4934804;29;20222;-81
2023/05/25 01:09:17;;;;;;;25.23;9.32;;;11.40;99.90;;;;;;4911835;29;20187;-84
2023/05/25 01:11:47;;;;;;;21.38;8.82;;;11.40;99.90;;;;;;4928446;29;20291;-80
2023/05/25 01:14:17;;;;;;;28.17;8.73;;;11.40;99.90;;;;;;4937566;29;20652;-82
2023/05/25 01:16:44;;;;;;;21.35;9.88;;;11.40;99.90;;;;;;4947260;29;20618;-82
2023/05/25 01:19:09;;;;;;;22.05;9.82;;;11.40;99.90;;;;;;4937482;29;20209;-82
2023/05/25 01:21:44;;;;;;;24.25;8.85;;;11.30;99.90;;;;;;4934476;29;20184;-81
2023/05/25 01:24:39;;;;;;;22.20;9.70;;;11.30;99.90;;;;;;4934804;29;20270;-82
2023/05/25 01:27:26;;;;;;;25.55;9.20;;;11.30;99.90;;;;;;4933777;29;20662;-84
2023/05/25 01:29:54;;;;;;;20.85;9.50;;;11.30;99.90;;;;;;4945944;28;20184;-84
2023/05/25 01:32:21;;;;;;;26.40;9.75;;;11.30;99.90;;;;;;4933378;29;20722;-81
2023/05/25 01:34:49;;;;;;;23.00;9.25;;;11.30;99.90;;;;;;4950383;29;20218;-82
2023/05/25 01:37:17;;;;;;;24.63;10.02;;;11.20;99.90;;;;;;4936130;29;20190;-83
2023/05/25 01:39:42;;;;;;;23.20;9.48;;;11.30;99.90;;;;;;4932054;29;20254;-82
2023/05/25 01:42:08;;;;;;;25.13;9.55;;;11.30;99.90;;;;;;4924556;29;20707;-82
2023/05/25 01:44:36;;;;;;;23.35;9.02;;;11.30;99.90;;;;;;4919895;29;20269;-81
2023/05/25 01:47:27;;;;;;;25.80;9.68;;;11.30;99.90;;;;;;4915532;29;20278;-82
2023/05/25 01:50:04;;;;;;;24.85;9.75;;;11.30;99.90;;;;;;4923439;29;20682;-82
2023/05/25 01:52:37;;;;;;;24.10;9.23;;;11.30;99.90;;;;;;4934176;29;20170;-82
2023/05/25 01:55:07;;;;;;;29.08;9.82;;;11.30;99.90;;;;;;4915218;29;20187;-82
2023/05/25 01:57:37;;;;;;;28.70;9.57;;;11.30;99.90;;;;;;4918606;29;20591;-81
2023/05/25 02:00:05;;;;;;;27.23;9.80;;;11.20;99.90;;;;;;4934339;29;20752;-81
2023/05/25 02:02:42;;;;;;;25.50;10.27;;;11.20;99.90;;;;;;4942314;29;20226;-82
2023/05/25 02:05:09;;;;;;;23.38;9.65;;;11.20;99.90;;;;;;4934058;29;20218;-83
2023/05/25 02:07:35;;;;;;;23.80;9.98;;;11.20;99.90;;;;;;4935269;29;20195;-81
2023/05/25 02:10:02;;;;;;;31.65;9.45;;;11.20;99.90;;;;;;4933469;29;20622;-82
2023/05/25 02:12:28;;;;;;;30.05;10.50;;;11.20;99.90;;;;;;4934153;29;20214;-82
2023/05/25 02:14:53;;;;;;;26.98;10.90;;;11.20;99.90;;;;;;4932972;29;20282;-82
2023/05/25 02:17:19;;;;;;;25.08;10.15;;;11.20;99.90;;;;;;4933065;29;20184;-82
2023/05/25 02:19:47;;;;;;;20.95;10.07;;;11.20;99.90;;;;;;4929574;29;20669;-81
2023/05/25 02:22:14;;;;;;;27.35;9.82;;;11.20;99.90;;;;;;4917226;29;20704;-83
2023/05/25 02:24:40;;;;;;;26.83;10.77;;;11.20;99.90;;;;;;4916277;29;20585;-80
2023/05/25 02:27:06;;;;;;;22.73;9.88;;;11.10;99.90;;;;;;4927624;29;20175;-82
2023/05/25 02:29:32;;;;;;;24.05;10.55;;;11.20;99.90;;;;;;4901226;29;20184;-82
2023/05/25 02:31:59;;;;;;;25.15;10.38;;;11.10;99.90;;;;;;4914535;29;20222;-81
2023/05/25 02:34:25;;;;;;;25.83;10.65;;;11.10;99.90;;;;;;4934387;29;20199;-81
2023/05/25 02:36:51;;;;;;;24.20;10.43;;;11.20;99.90;;;;;;4918000;29;20218;-81
2023/05/25 02:39:17;;;;;;;22.67;9.88;;;11.20;99.90;;;;;;4935701;29;20195;-81
2023/05/25 02:41:43;;;;;;;25.55;10.10;;;11.20;99.90;;;;;;4934183;29;20209;-81
2023/05/25 02:44:08;;;;;;;23.38;10.18;;;11.20;99.90;;;;;;4903454;29;20656;-82
2023/05/25 02:46:34;;;;;;;21.95;9.82;;;11.20;99.90;;;;;;4925161;29;20294;-82
2023/05/25 02:49:00;;;;;;;21.08;10.30;;;11.20;99.90;;;;;;4935755;29;20186;-81
2023/05/25 02:51:27;;;;;;;22.95;10.20;;;11.20;99.90;;;;;;4927067;29;20187;-81
2023/05/25 02:53:55;;;;;;;24.20;10.18;;;11.20;99.90;;;;;;4933967;29;20180;-88
2023/05/25 02:56:21;;;;;;;23.70;9.45;;;11.20;99.90;;;;;;4917284;29;20192;-82
2023/05/25 02:58:49;;;;;;;23.63;10.55;;;11.20;99.90;;;;;;4950214;29;20187;-81
2023/05/25 03:01:33;;;;;;;20.67;9.85;;;11.20;99.90;;;;;;4927692;29;20250;-81
2023/05/25 03:03:59;;;;;;;24.70;9.75;;;11.20;99.90;;;;;;4934530;29;20266;-80
2023/05/25 03:06:27;;;;;;;22.17;10.38;;;11.10;99.90;;;;;;4920348;29;20207;-92
2023/05/25 03:08:56;;;;;;;26.77;10.75;;;11.10;99.90;;;;;;4919488;29;20192;-81
2023/05/25 03:11:23;;;;;;;30.17;10.75;;;11.10;99.90;;;;;;4917909;29;20192;-82
2023/05/25 03:13:50;;;;;;;24.77;9.95;;;11.10;99.90;;;;;;4915325;29;20179;-82
2023/05/25 03:16:17;;;;;;;22.98;10.25;;;11.10;99.90;;;;;;4923478;29;20191;-81
2023/05/25 03:18:43;;;;;;;26.63;10.77;;;11.10;99.90;;;;;;4917698;29;20223;-81
2023/05/25 03:21:10;;;;;;;28.25;10.85;;;11.10;99.90;;;;;;4933977;29;20278;-84
2023/05/25 03:23:36;;;;;;;29.15;11.15;;;11.10;99.90;;;;;;4928850;29;20676;-81
2023/05/25 03:26:06;;;;;;;25.70;10.50;;;11.10;99.90;;;;;;4914028;29;20310;-82
2023/05/25 03:28:32;;;;;;;27.70;10.85;;;11.10;99.90;;;;;;4917663;29;20243;-81
2023/05/25 03:30:58;;;;;;;23.50;10.82;;;11.10;99.90;;;;;;4934876;29;20251;-81
2023/05/25 03:33:24;;;;;;;29.95;10.30;;;11.10;99.90;;;;;;4921387;29;20591;-86
2023/05/25 03:35:51;;;;;;;26.88;10.45;;;11.10;99.90;;;;;;4937071;29;20591;-82
2023/05/25 03:38:17;;;;;;;21.13;10.52;;;11.10;99.90;;;;;;4914712;29;20207;-81
2023/05/25 03:40:44;;;;;;;29.88;10.75;;;11.00;99.90;;;;;;4919525;29;20657;-81
2023/05/25 03:43:10;;;;;;;28.45;11.35;;;11.00;99.90;;;;;;4933290;29;20247;-81
2023/05/25 03:45:36;;;;;;;27.17;11.32;;;11.00;99.90;;;;;;4917935;29;20362;-81
2023/05/25 03:48:01;;;;;;;23.77;10.70;;;11.00;99.90;;;;;;4948837;29;20195;-82
2023/05/25 03:50:27;;;;;;;32.72;11.50;;;11.00;99.90;;;;;;4932925;29;20187;-81
2023/05/25 03:52:53;;;;;;;25.50;10.93;;;11.00;99.90;;;;;;4918743;29;20191;-81
2023/05/25 03:55:19;;;;;;;28.75;11.40;;;11.00;99.90;;;;;;4937364;29;20195;-86
2023/05/25 03:57:44;;;;;;;32.03;11.82;;;11.00;99.90;;;;;;4936825;29;20191;-81
2023/05/25 04:00:11;;;;;;;26.25;11.65;;;11.00;99.90;;;;;;4916274;29;20234;-83
2023/05/25 04:02:41;;;;;;;24.88;11.35;;;10.90;99.90;;;;;;4919545;29;20243;-81
2023/05/25 04:05:08;;;;;;;25.77;10.80;;;10.90;99.90;;;;;;4951161;28;20219;-81
2023/05/25 04:07:35;;;;;;;29.35;11.13;;;10.90;99.90;;;;;;4937515;29;20199;-80
2023/05/25 04:10:02;;;;;;;29.08;12.50;;;10.90;99.90;;;;;;4921519;29;20188;-84
2023/05/25 04:12:27;;;;;;;26.08;11.80;;;10.90;99.90;;;;;;4933457;29;20210;-81
2023/05/25 04:14:53;;;;;;;25.52;11.73;;;10.90;99.90;;;;;;4917528;29;20200;-82
2023/05/25 04:17:23;;;;;;;29.02;12.63;;;10.90;99.90;;;;;;4919668;29;20246;-82
2023/05/25 04:19:50;;;;;;;25.23;12.45;;;10.90;99.90;;;;;;4936467;29;20183;-82
2023/05/25 04:22:17;;;;;;;29.85;12.50;;;10.90;99.90;;;;;;4924785;29;20187;-80
2023/05/25 04:24:44;;;;;;;24.48;11.95;;;10.90;99.90;;;;;;4921750;29;20645;-81
2023/05/25 04:27:10;;;;;;;34.05;12.02;;;10.90;99.90;;;;;;4928630;29;20206;-82
2023/05/25 04:29:37;;;;;;;30.40;12.93;;;10.90;99.90;;;;;;4937400;29;20240;-81
2023/05/25 04:32:16;;;;;;;24.50;12.55;;;10.90;99.90;;;;;;4937778;29;20202;-81
2023/05/25 04:34:47;;;;;;;24.23;12.93;;;10.90;99.90;;;;;;4931975;29;20207;-81
2023/05/25 04:37:21;;;;;;;30.48;12.75;;;10.90;99.90;;;;;;4949704;29;20246;-84
2023/05/25 04:39:47;;;;;;;27.85;13.50;;;10.90;99.90;;;;;;4912208;29;20542;-80
2023/05/25 04:42:13;;;;;;;28.05;13.45;;;10.90;99.90;;;;;;4921854;29;20180;-81
2023/05/25 04:44:39;;;;;;;36.25;12.95;;;11.00;99.90;;;;;;4936342;29;20255;-81
2023/05/25 04:47:06;;;;;;;28.40;14.00;;;11.00;99.90;;;;;;4938445;29;20302;-82
2023/05/25 04:49:33;;;;;;;30.98;13.88;;;11.00;99.90;;;;;;4920015;29;20179;-81
2023/05/25 04:51:58;;;;;;;24.63;13.02;;;11.00;99.90;;;;;;4933513;29;20191;-80
2023/05/25 04:54:27;;;;;;;30.92;14.10;;;11.10;99.90;;;;;;4928528;29;20585;-81
2023/05/25 04:56:56;;;;;;;30.33;13.52;;;11.10;99.90;;;;;;4931848;29;20195;-81
2023/05/25 04:59:22;;;;;;;34.50;13.77;;;11.10;99.90;;;;;;4901546;29;20186;-82
2023/05/25 05:01:48;;;;;;;27.67;13.68;;;11.20;99.90;;;;;;4931744;29;20246;-82
2023/05/25 05:04:16;;;;;;;27.20;13.55;;;11.20;99.90;;;;;;4939367;29;20218;-81
2023/05/25 05:06:43;;;;;;;32.58;13.43;;;11.30;99.90;;;;;;4937212;29;20222;-81
2023/05/25 05:09:14;;;;;;;26.67;13.05;;;11.30;99.90;;;;;;4938411;29;20640;-81
2023/05/25 05:11:39;;;;;;;30.23;13.90;;;11.30;99.90;;;;;;4952651;29;20190;-81
2023/05/25 05:14:06;;;;;;;29.30;11.77;;;11.40;99.90;;;;;;4935929;29;20622;-81
2023/05/25 05:16:33;;;;;;;29.48;12.93;;;11.40;99.90;;;;;;4935832;29;20242;-82
2023/05/25 05:19:00;;;;;;;31.10;12.60;;;11.50;99.90;;;;;;4935309;29;20195;-81
2023/05/25 05:21:26;;;;;;;28.65;13.05;;;11.50;99.90;;;;;;4918571;29;20188;-86
2023/05/25 05:23:53;;;;;;;25.02;11.63;;;11.60;99.90;;;;;;4940223;29;20202;-85
2023/05/25 05:26:20;;;;;;;30.52;11.70;;;11.70;99.90;;;;;;4936686;29;20228;-88
2023/05/25 05:28:46;;;;;;;24.92;11.07;;;11.80;99.90;;;;;;4918604;29;20231;-87
2023/05/25 05:31:13;;;;;;;27.48;11.05;;;11.80;99.90;;;;;;4925554;29;20194;-87
2023/05/25 05:33:40;;;;;;;27.77;11.00;;;11.90;99.90;;;;;;4920864;29;20187;-86
2023/05/25 05:36:06;;;;;;;23.50;10.70;;;11.90;99.90;;;;;;4918275;29;20196;-87
2023/05/25 05:38:31;;;;;;;28.20;10.65;;;12.00;99.90;;;;;;4919817;29;20278;-87
2023/05/25 05:40:57;;;;;;;29.67;11.40;;;12.10;99.90;;;;;;4937579;29;20250;-85
2023/05/25 05:43:23;;;;;;;27.60;9.82;;;12.10;99.90;;;;;;4921983;29;20283;-87
2023/05/25 05:45:49;;;;;;;29.15;9.68;;;12.20;99.90;;;;;;4920675;29;20324;-87
2023/05/25 05:48:15;;;;;;;26.05;9.85;;;12.20;99.90;;;;;;4935711;29;20195;-85
2023/05/25 05:50:41;;;;;;;22.85;8.60;;;12.30;99.90;;;;;;4920923;29;20214;-85
2023/05/25 05:53:08;;;;;;;27.48;9.40;;;12.40;99.90;;;;;;4943252;29;20187;-86
2023/05/25 05:55:34;;;;;;;22.70;8.98;;;12.40;99.90;;;;;;4919936;29;20203;-86
2023/05/25 05:58:01;;;;;;;19.25;7.70;;;12.50;99.90;;;;;;4921256;29;20231;-85
2023/05/25 06:00:27;;;;;;;19.63;7.20;;;12.50;99.90;;;;;;4939761;29;20239;-86
2023/05/25 06:02:53;;;;;;;18.77;6.13;;;12.60;99.90;;;;;;4933141;29;20193;-86
2023/05/25 06:05:22;;;;;;;21.83;6.10;;;12.60;99.90;;;;;;4940589;29;20330;-87
2023/05/25 06:07:50;;;;;;;15.98;5.30;;;12.70;99.90;;;;;;4918659;29;20184;-85
2023/05/25 06:10:18;;;;;;;20.92;4.97;;;12.80;99.90;;;;;;4939698;29;20197;-87
2023/05/25 06:12:45;;;;;;;22.17;4.75;;;12.80;99.90;;;;;;4940252;29;20298;-87
2023/05/25 06:15:11;;;;;;;20.42;5.47;;;12.90;99.90;;;;;;4934319;29;20198;-87
2023/05/25 06:17:38;;;;;;;23.25;5.32;;;12.90;99.90;;;;;;4927210;29;20274;-89
2023/05/25 06:20:05;;;;;;;16.63;4.78;;;13.00;99.90;;;;;;4937858;29;20246;-89
2023/05/25 06:22:32;;;;;;;21.30;5.03;;;13.00;99.90;;;;;;4930973;29;20642;-87
2023/05/25 06:24:58;;;;;;;22.73;5.15;;;13.10;99.90;;;;;;4942179;29;20215;-87
2023/05/25 06:27:24;;;;;;;24.40;5.13;;;13.20;99.90;;;;;;4926957;29;20247;-85
2023/05/25 06:29:50;;;;;;;24.50;5.22;;;13.20;99.90;;;;;;4922561;29;20179;-85
2023/05/25 06:32:16;;;;;;;24.00;5.32;;;13.20;99.90;;;;;;4921681;29;20187;-87
2023/05/25 06:34:42;;;;;;;22.85;5.35;;;13.30;99.90;;;;;;4924642;29;20199;-88
2023/05/25 06:37:08;;;;;;;22.48;5.38;;;13.30;99.90;;;;;;4930876;29;20195;-90
2023/05/25 06:39:35;;;;;;;25.88;5.75;;;13.40;99.90;;;;;;4950207;29;20327;-88
2023/05/25 06:42:02;;;;;;;24.58;5.68;;;13.40;99.90;;;;;;4922564;29;20199;-88
2023/05/25 06:44:30;;;;;;;24.45;5.40;;;13.50;99.90;;;;;;4926299;29;20179;-89
2023/05/25 06:47:00;;;;;;;23.80;5.45;;;13.60;99.90;;;;;;4943284;29;20230;-89
2023/05/25 06:49:26;;;;;;;24.30;5.40;;;13.60;99.90;;;;;;4945405;29;20189;-89
2023/05/25 06:51:52;;;;;;;24.48;4.82;;;13.70;99.90;;;;;;4943250;29;20219;-88
2023/05/25 06:54:18;;;;;;;24.58;5.43;;;13.80;99.90;;;;;;4926920;29;20190;-89
2023/05/25 06:56:44;;;;;;;29.85;5.38;;;13.90;99.90;;;;;;4942481;29;20198;-88
2023/05/25 06:59:11;;;;;;;24.48;5.45;;;13.90;99.90;;;;;;4943451;29;20195;-89
2023/05/25 07:01:36;;;;;;;22.75;5.47;;;14.00;99.90;;;;;;4922613;29;20647;-90
2023/05/25 07:04:02;;;;;;;22.75;5.30;;;14.10;99.90;;;;;;4942024;29;20184;-88
2023/05/25 07:06:28;;;;;;;22.73;5.43;;;14.20;99.90;;;;;;4909888;29;20208;-87
2023/05/25 07:08:54;;;;;;;24.05;6.55;;;14.20;99.90;;;;;;4952459;29;20199;-89
2023/05/25 07:11:20;;;;;;;21.00;5.47;;;14.20;99.90;;;;;;4926431;29;20195;-87
2023/05/25 07:13:47;;;;;;;27.92;5.53;;;14.20;99.90;;;;;;4941432;29;20207;-89
2023/05/25 07:16:13;;;;;;;29.92;6.22;;;14.30;99.90;;;;;;4942860;29;20259;-88
2023/05/25 07:18:40;;;;;;;23.17;5.13;;;14.30;99.90;;;;;;4941959;29;20211;-88
2023/05/25 07:21:09;;;;;;;30.52;5.70;;;14.40;99.90;;;;;;4923450;29;20255;-89
2023/05/25 07:23:36;;;;;;;35.30;8.55;;;14.40;99.90;;;;;;4942068;29;20228;-88
2023/05/25 07:26:02;;;;;;;35.30;6.28;;;14.50;99.90;;;;;;4941334;29;20215;-87
2023/05/25 07:28:28;;;;;;;25.27;4.60;;;14.60;99.90;;;;;;4930254;29;20198;-87
2023/05/25 07:30:54;;;;;;;24.55;5.22;;;14.60;99.90;;;;;;4926346;29;20192;-87
2023/05/25 07:33:20;;;;;;;29.63;5.55;;;14.80;99.90;;;;;;4944993;29;20184;-87
2023/05/25 07:35:46;;;;;;;25.45;4.70;;;14.90;99.90;;;;;;4933964;29;20512;-87
2023/05/25 07:38:11;;;;;;;27.73;5.55;;;15.00;99.90;;;;;;4925168;29;20195;-87
2023/05/25 07:40:37;;;;;;;24.67;5.20;;;15.10;99.90;;;;;;4944048;29;20297;-87
2023/05/25 07:43:04;;;;;;;29.65;5.15;;;15.10;99.90;;;;;;4929254;29;20251;-87
2023/05/25 07:45:29;;;;;;;22.08;5.28;;;15.10;99.90;;;;;;4944295;29;20226;-88
2023/05/25 07:47:55;;;;;;;32.72;5.95;;;15.10;99.90;;;;;;4928974;29;20187;-88
2023/05/25 07:50:22;;;;;;;30.35;6.03;;;15.10;99.90;;;;;;4944332;29;20268;-86
2023/05/25 07:52:48;;;;;;;30.60;6.53;;;15.10;99.90;;;;;;4927902;29;20207;-88
2023/05/25 07:55:14;;;;;;;23.85;5.75;;;15.10;99.90;;;;;;4942385;29;20209;-90
2023/05/25 07:57:39;;;;;;;25.50;5.20;;;15.10;99.90;;;;;;4943717;29;20634;-88
2023/05/25 08:00:09;;;;;;;27.10;5.20;;;15.10;99.90;;;;;;4959505;29;20239;-89
2023/05/25 08:02:42;;;;;;;20.42;5.22;;;15.10;99.90;;;;;;4946530;29;20180;-89
2023/05/25 08:05:08;;;;;;;26.52;5.32;;;15.20;99.90;;;;;;4943380;29;20204;-89
2023/05/25 08:07:35;;;;;;;30.00;5.20;;;15.30;99.90;;;;;;4962546;28;20263;-89
2023/05/25 08:10:02;;;;;;;28.23;5.30;;;15.40;99.90;;;;;;4960787;28;20637;-89
2023/05/25 08:12:28;;;;;;;19.65;4.70;;;15.50;99.90;;;;;;4951609;28;20671;-90
2023/05/25 08:14:54;;;;;;;31.10;6.20;;;15.60;99.90;;;;;;4935685;29;20662;-87
2023/05/25 08:17:20;;;;;;;25.88;4.93;;;15.80;99.90;;;;;;4942407;29;20546;-86
2023/05/25 08:19:46;;;;;;;34.53;6.68;;;16.00;99.90;;;;;;4936232;29;20187;-86
2023/05/25 08:22:18;;;;;;;26.27;5.20;;;15.80;99.90;;;;;;4937665;29;20298;-86
2023/05/25 08:24:44;;;;;;;28.08;5.30;;;15.70;99.90;;;;;;4921899;29;20306;-86
2023/05/25 08:27:10;;;;;;;19.88;4.80;;;15.60;99.90;;;;;;4939856;29;20218;-85
2023/05/25 08:29:36;;;;;;;33.45;5.43;;;15.70;99.90;;;;;;4923112;29;20199;-85
2023/05/25 08:32:02;;;;;;;26.58;5.35;;;15.70;99.90;;;;;;4939000;29;20503;-86
2023/05/25 08:34:28;;;;;;;26.02;5.00;;;15.80;99.90;;;;;;4938125;29;20194;-86
2023/05/25 08:36:56;;;;;;;25.35;4.97;;;15.80;99.90;;;;;;4937233;29;20194;-87
2023/05/25 08:39:22;;;;;;;24.13;5.22;;;15.90;99.90;;;;;;4937230;29;20197;-86
2023/05/25 08:41:49;;;;;;;24.38;5.10;;;16.00;99.90;;;;;;4910174;29;20190;-86
2023/05/25 08:44:15;;;;;;;19.92;4.70;;;16.20;99.90;;;;;;4953659;29;20216;-85
2023/05/25 08:46:41;;;;;;;30.23;5.63;;;16.30;99.90;;;;;;4943252;29;20282;-86
2023/05/25 08:49:14;;;;;;;24.05;6.50;;;16.60;99.90;;;;;;4945846;29;20187;-84
2023/05/25 08:51:49;;;;;;;25.60;5.20;;;16.70;99.90;;;;;;4928165;29;20194;-83
2023/05/25 08:54:35;;;;;;;30.65;4.93;;;16.90;99.90;;;;;;4942237;29;20183;-85
2023/05/25 08:57:09;;;;;;;24.70;4.70;;;17.00;99.90;;;;;;4944649;29;20183;-87
2023/05/25 08:59:56;;;;;;;25.48;5.00;;;17.00;99.90;;;;;;4947650;29;20230;-87
2023/05/25 09:02:29;;;;;;;27.52;5.15;;;17.10;99.90;;;;;;4944107;29;20187;-86
2023/05/25 09:04:55;;;;;;;19.70;4.75;;;17.10;99.90;;;;;;4945283;29;20286;-85
2023/05/25 09:07:23;;;;;;;19.05;4.65;;;17.20;99.90;;;;;;4927984;29;20210;-85
2023/05/25 09:09:50;;;;;;;22.05;4.80;;;17.20;99.90;;;;;;4944469;29;20246;-88
2023/05/25 09:12:17;;;;;;;25.27;4.97;;;17.20;99.90;;;;;;4946221;29;20226;-86
2023/05/25 09:14:46;;;;;;;25.13;5.60;;;17.30;99.90;;;;;;4946772;29;20267;-87
2023/05/25 09:17:17;;;;;;;22.30;5.38;;;17.30;99.90;;;;;;4945736;29;20187;-88
2023/05/25 09:19:44;;;;;;;23.50;5.03;;;17.40;99.90;;;;;;4948428;29;20606;-88
2023/05/25 09:22:10;;;;;;;22.70;5.38;;;17.50;99.70;;;;;;4944599;29;20198;-88
2023/05/25 09:24:36;;;;;;;21.67;4.82;;;17.40;99.60;;;;;;4928029;29;20195;-87
2023/05/25 09:27:02;;;;;;;19.55;4.60;;;17.40;99.00;;;;;;4927048;29;20191;-87
2023/05/25 09:29:28;;;;;;;20.10;5.38;;;17.40;99.10;;;;;;4928358;29;20190;-88
2023/05/25 09:31:55;;;;;;;21.20;5.03;;;17.30;98.30;;;;;;4926359;29;20223;-88
2023/05/25 09:34:21;;;;;;;17.88;5.00;;;17.30;98.30;;;;;;4924960;29;20797;-87
2023/05/25 09:36:47;;;;;;;21.13;5.30;;;17.40;98.30;;;;;;4923084;29;20234;-89
2023/05/25 09:39:13;;;;;;;23.50;5.28;;;17.50;98.70;;;;;;4922143;29;20220;-88
2023/05/25 09:41:42;;;;;;;20.80;5.53;;;17.50;98.10;;;;;;4923608;29;20243;-87
2023/05/25 09:44:08;;;;;;;18.38;4.80;;;17.60;97.70;;;;;;4939179;29;20188;-88
2023/05/25 09:46:37;;;;;;;21.63;5.07;;;17.70;97.60;;;;;;4923867;29;20215;-87
2023/05/25 09:49:07;;;;;;;24.05;5.00;;;17.80;97.60;;;;;;4941550;29;20207;-87
2023/05/25 09:51:35;;;;;;;21.02;5.55;;;17.90;97.30;;;;;;4940847;29;20181;-87
2023/05/25 09:54:02;;;;;;;23.63;5.13;;;17.90;96.90;;;;;;4926239;29;20187;-93
2023/05/25 09:56:30;;;;;;;27.48;5.55;;;17.90;96.80;;;;;;4941523;29;20598;-87
2023/05/25 09:58:57;;;;;;;30.23;5.35;;;17.80;97.00;;;;;;4942352;29;20269;-86
2023/05/25 10:01:23;;;;;;;24.75;5.60;;;17.70;97.00;;;;;;4940319;29;20250;-86
2023/05/25 10:03:55;;;;;;;26.67;5.95;;;17.60;97.20;;;;;;4941867;29;20326;-86
2023/05/25 10:06:22;;;;;;;25.25;5.45;;;17.50;97.30;;;;;;4941397;29;20227;-87
2023/05/25 10:08:48;;;;;;;31.58;5.95;;;17.50;97.40;;;;;;4941899;29;20187;-88
2023/05/25 10:11:15;;;;;;;32.38;5.63;;;17.60;98.00;;;;;;4941777;29;20221;-86
2023/05/25 10:13:46;;;;;;;22.80;5.40;;;17.60;97.50;;;;;;4924897;29;20195;-87
2023/05/25 10:16:18;;;;;;;31.23;5.80;;;17.60;97.40;;;;;;4935177;29;20199;-87
2023/05/25 10:19:07;;;;;;;23.23;5.55;;;17.70;97.30;;;;;;4923927;29;20188;-86
2023/05/25 10:21:35;;;;;;;30.33;6.05;;;17.70;97.10;;;;;;4923067;29;20211;-86
2023/05/25 10:24:05;;;;;;;20.30;5.25;;;17.80;97.10;;;;;;4938307;29;20217;-88
2023/05/25 10:26:37;;;;;;;29.25;5.50;;;17.70;96.90;;;;;;4922205;29;20275;-86
2023/05/25 10:29:03;;;;;;;27.83;5.68;;;17.70;97.00;;;;;;4941195;29;20191;-86
2023/05/25 10:31:32;;;;;;;30.08;6.43;;;17.70;97.10;;;;;;4955776;29;20231;-86
2023/05/25 10:33:59;;;;;;;31.55;6.38;;;17.80;97.00;;;;;;4938275;29;20187;-86
2023/05/25 10:36:26;;;;;;;24.98;5.63;;;17.70;96.70;;;;;;4938589;29;20195;-86
2023/05/25 10:38:53;;;;;;;29.42;5.97;;;17.70;96.60;;;;;;4938576;29;20194;-86
2023/05/25 10:41:19;;;;;;;22.63;5.28;;;17.60;96.60;;;;;;4925692;29;20183;-86
2023/05/25 10:43:46;;;;;;;25.60;5.25;;;17.60;96.30;;;;;;4939619;29;20176;-86
2023/05/25 10:46:13;;;;;;;22.10;5.25;;;17.50;96.30;;;;;;4938537;29;20227;-87
2023/05/25 10:48:46;;;;;;;21.75;4.93;;;17.60;96.10;;;;;;4938083;29;20192;-88
2023/05/25 10:51:13;;;;;;;25.17;5.38;;;17.60;95.90;;;;;;4939602;29;20171;-86
2023/05/25 10:53:46;;;;;;;20.83;4.72;;;17.60;95.30;;;;;;4954587;29;20250;-86
2023/05/25 10:56:12;;;;;;;22.23;4.70;;;17.60;95.10;;;;;;4952317;29;20266;-86
2023/05/25 10:58:45;;;;;;;23.80;5.15;;;17.60;94.70;;;;;;4936015;29;20211;-87
2023/05/25 11:01:13;;;;;;;21.35;5.05;;;17.70;94.60;;;;;;4935933;29;20226;-87
2023/05/25 11:03:54;;;;;;;20.02;5.30;;;17.70;94.40;;;;;;4957080;29;20195;-87
2023/05/25 11:06:43;;;;;;;20.40;5.18;;;17.80;94.40;;;;;;4944286;29;20219;-87
2023/05/25 11:09:26;;;;;;;17.90;4.90;;;17.80;94.50;;;;;;4945152;29;20183;-87
2023/05/25 11:11:54;;;;;;;19.83;4.50;;;17.80;93.80;;;;;;4944677;29;20294;-87
2023/05/25 11:14:21;;;;;;;22.58;4.50;;;17.70;93.40;;;;;;4947341;29;20190;-88
2023/05/25 11:17:09;;;;;;;22.80;5.47;;;17.80;93.40;;;;;;4946372;29;20192;-87
2023/05/25 11:19:49;;;;;;;20.08;4.68;;;17.90;93.10;;;;;;4944339;29;20183;-88
2023/05/25 11:22:32;;;;;;;20.20;5.20;;;17.90;92.70;;;;;;4943907;29;20176;-87
2023/05/25 11:24:59;;;;;;;20.08;4.95;;;18.00;93.00;;;;;;4943661;29;20696;-87
2023/05/25 11:27:30;;;;;;;29.08;5.97;;;18.10;92.60;;;;;;4913117;29;20195;-87
2023/05/25 11:29:57;;;;;;;31.27;6.20;;;18.00;92.60;;;;;;4941498;29;20186;-86
2023/05/25 11:32:28;;;;;;;25.45;5.63;;;18.00;93.10;;;;;;4941720;29;20622;-87
2023/05/25 11:34:58;;;;;;;28.25;5.78;;;17.80;93.60;;;;;;4942331;29;20171;-87
2023/05/25 11:37:27;;;;;;;25.00;5.68;;;17.70;94.20;;;;;;4945303;29;20191;-87
2023/05/25 11:39:53;;;;;;;22.92;4.65;;;17.70;94.40;;;;;;4963196;29;20652;-88
2023/05/25 11:42:23;;;;;;;22.30;5.50;;;17.60;94.60;;;;;;4946038;29;20561;-87
2023/05/25 11:44:50;;;;;;;24.60;5.38;;;17.60;94.60;;;;;;4944399;29;20246;-87
2023/05/25 11:47:18;;;;;;;22.65;5.15;;;17.60;94.40;;;;;;4945394;29;20190;-87
2023/05/25 11:49:46;;;;;;;34.53;5.28;;;17.50;94.40;;;;;;4941492;29;20179;-87
2023/05/25 11:52:14;;;;;;;23.83;5.25;;;17.60;94.60;;;;;;4945349;29;20465;-87
2023/05/25 11:54:40;;;;;;;29.17;5.25;;;17.70;93.90;;;;;;4945243;29;20211;-87
2023/05/25 11:57:13;;;;;;;26.13;5.00;;;17.70;93.80;;;;;;4945755;29;20250;-88
2023/05/25 11:59:39;;;;;;;26.52;5.68;;;17.80;93.60;;;;;;4929325;29;20184;-87
2023/05/25 12:02:05;;;;;;;27.08;5.30;;;17.80;93.30;;;;;;4944510;29;20191;-86
2023/05/25 12:04:32;;;;;;;17.02;4.68;;;17.70;93.30;;;;;;4927629;29;20523;-87
2023/05/25 12:07:06;;;;;;;25.42;5.38;;;17.70;93.40;;;;;;4943426;29;20194;-87
2023/05/25 12:09:33;;;;;;;29.50;6.15;;;17.60;93.40;;;;;;4927632;29;20187;-86
2023/05/25 12:12:01;;;;;;;25.92;5.18;;;17.60;93.70;;;;;;4942776;29;20282;-86
2023/05/25 12:14:27;;;;;;;28.58;6.07;;;17.70;93.90;;;;;;4942401;29;20269;-87
2023/05/25 12:16:53;;;;;;;27.77;4.97;;;17.70;93.70;;;;;;4960899;29;20171;-87
2023/05/25 12:19:20;;;;;;;26.00;5.32;;;17.70;93.80;;;;;;4945670;29;20179;-86
2023/05/25 12:21:49;;;;;;;31.08;5.88;;;17.70;93.70;;;;;;4945090;29;20220;-87
2023/05/25 12:24:16;;;;;;;25.70;5.43;;;17.60;93.60;;;;;;4943781;29;20186;-88
2023/05/25 12:26:50;;;;;;;22.17;5.30;;;17.70;93.50;;;;;;4943816;29;20211;-88
2023/05/25 12:29:16;;;;;;;20.00;5.07;;;17.70;93.40;;;;;;4944076;29;20278;-87
2023/05/25 12:31:42;;;;;;;16.77;4.68;;;17.80;93.30;;;;;;4943787;29;20258;-86
2023/05/25 12:34:12;;;;;;;25.58;5.55;;;17.90;92.90;;;;;;4946060;29;20226;-86
2023/05/25 12:36:41;;;;;;;26.20;5.50;;;17.90;92.70;;;;;;4943911;29;20642;-87